sensor_id;sensor_type;location;lat;lon;timestamp;pressure;altitude;pressure_sealevel;temperature;humidity
70954;BME280;58618;47.490;8.736;2022-08-19T00:00:16;96214.63;;;17.25;100.00
70954;BME280;58618;47.490;8.736;2022-08-19T00:03:03;96220.88;;;17.33;100.00
70954;BME280;58618;47.490;8.736;2022-08-19T00:05:52;96220.72;;;17.29;100.00
70954;BME280;58618;47.490;8.736;2022-08-19T00:08:40;96223.69;;;17.27;100.00
70954;BME280;58618;47.490;8.736;2022-08-19T00:11:27;96221.63;;;17.33;100.00
70954;BME280;58618;47.490;8.736;2022-08-19T00:14:16;96222.59;;;17.28;100.00
70954;BME280;58618;47.490;8.736;2022-08-19T00:17:04;96225.31;;;17.32;100.00
70954;BME280;58618;47.490;8.736;2022-08-19T00:19:52;96223.78;;;17.31;100.00
70954;BME280;58618;47.490;8.736;2022-08-19T00:22:41;96232.56;;;17.26;100.00
70954;BME280;58618;47.490;8.736;2022-08-19T00:25:28;96233.03;;;17.41;100.00
70954;BME280;58618;47.490;8.736;2022-08-19T00:28:16;96239.53;;;17.35;100.00
70954;BME280;58618;47.490;8.736;2022-08-19T00:31:03;96241.75;;;17.45;100.00
70954;BME280;58618;47.490;8.736;2022-08-19T00:33:51;96244.75;;;17.35;100.00
70954;BME280;58618;47.490;8.736;2022-08-19T00:36:38;96237.13;;;17.17;100.00
70954;BME280;58618;47.490;8.736;2022-08-19T00:39:27;96231.91;;;17.29;100.00
70954;BME280;58618;47.490;8.736;2022-08-19T00:42:14;96236.50;;;17.33;100.00
70954;BME280;58618;47.490;8.736;2022-08-19T00:45:02;96234.72;;;17.24;100.00
70954;BME280;58618;47.490;8.736;2022-08-19T00:47:55;96236.78;;;17.19;100.00
70954;BME280;58618;47.490;8.736;2022-08-19T00:50:44;96234.31;;;17.22;100.00
70954;BME280;58618;47.490;8.736;2022-08-19T00:53:32;96221.59;;;17.21;100.00
70954;BME280;58618;47.490;8.736;2022-08-19T00:56:21;96228.38;;;17.13;100.00
70954;BME280;58618;47.490;8.736;2022-08-19T00:59:09;96225.97;;;17.08;100.00
70954;BME280;58618;47.490;8.736;2022-08-19T01:01:57;96225.19;;;17.28;100.00
70954;BME280;58618;47.490;8.736;2022-08-19T01:04:45;96228.22;;;17.30;100.00
70954;BME280;58618;47.490;8.736;2022-08-19T01:07:33;96228.38;;;17.34;100.00
70954;BME280;58618;47.490;8.736;2022-08-19T01:10:24;96227.03;;;17.28;100.00
70954;BME280;58618;47.490;8.736;2022-08-19T01:13:17;96223.91;;;17.35;100.00
70954;BME280;58618;47.490;8.736;2022-08-19T01:16:09;96213.16;;;17.36;100.00
70954;BME280;58618;47.490;8.736;2022-08-19T01:18:56;96207.16;;;17.36;100.00
70954;BME280;58618;47.490;8.736;2022-08-19T01:21:47;96212.28;;;17.32;100.00
70954;BME280;58618;47.490;8.736;2022-08-19T01:24:40;96204.56;;;17.36;100.00
70954;BME280;58618;47.490;8.736;2022-08-19T01:27:37;96211.97;;;17.34;100.00
70954;BME280;58618;47.490;8.736;2022-08-19T01:30:27;96215.66;;;17.33;100.00
70954;BME280;58618;47.490;8.736;2022-08-19T01:33:15;96211.50;;;17.31;100.00
70954;BME280;58618;47.490;8.736;2022-08-19T01:36:06;96215.00;;;17.36;100.00
70954;BME280;58618;47.490;8.736;2022-08-19T01:38:54;96194.88;;;17.24;100.00
70954;BME280;58618;47.490;8.736;2022-08-19T01:41:43;96199.00;;;17.25;100.00
70954;BME280;58618;47.490;8.736;2022-08-19T01:44:30;96218.47;;;17.27;100.00
70954;BME280;58618;47.490;8.736;2022-08-19T01:47:18;96220.00;;;17.28;100.00
70954;BME280;58618;47.490;8.736;2022-08-19T01:50:08;96215.09;;;17.27;100.00
70954;BME280;58618;47.490;8.736;2022-08-19T01:52:57;96204.97;;;17.25;100.00
70954;BME280;58618;47.490;8.736;2022-08-19T01:55:45;96200.38;;;17.10;100.00
70954;BME280;58618;47.490;8.736;2022-08-19T01:58:38;96194.47;;;17.01;100.00
70954;BME280;58618;47.490;8.736;2022-08-19T02:01:26;96194.00;;;17.20;100.00
70954;BME280;58618;47.490;8.736;2022-08-19T02:04:13;96192.50;;;17.31;100.00
70954;BME280;58618;47.490;8.736;2022-08-19T02:07:01;96192.59;;;17.35;100.00
70954;BME280;58618;47.490;8.736;2022-08-19T02:09:49;96191.88;;;17.34;100.00
70954;BME280;58618;47.490;8.736;2022-08-19T02:12:36;96191.97;;;17.38;100.00
70954;BME280;58618;47.490;8.736;2022-08-19T02:15:25;96190.56;;;17.40;100.00
70954;BME280;58618;47.490;8.736;2022-08-19T02:18:13;96187.19;;;17.40;100.00
70954;BME280;58618;47.490;8.736;2022-08-19T02:21:00;96196.78;;;17.48;100.00
70954;BME280;58618;47.490;8.736;2022-08-19T02:23:48;96191.31;;;17.41;100.00
70954;BME280;58618;47.490;8.736;2022-08-19T02:26:36;96190.03;;;17.47;100.00
70954;BME280;58618;47.490;8.736;2022-08-19T02:29:23;96192.22;;;17.45;100.00
70954;BME280;58618;47.490;8.736;2022-08-19T02:32:12;96194.63;;;17.50;100.00
70954;BME280;58618;47.490;8.736;2022-08-19T02:34:59;96206.34;;;17.44;100.00
70954;BME280;58618;47.490;8.736;2022-08-19T02:37:46;96211.22;;;17.45;100.00
70954;BME280;58618;47.490;8.736;2022-08-19T02:40:49;96205.88;;;17.42;100.00
70954;BME280;58618;47.490;8.736;2022-08-19T02:43:37;96201.88;;;17.44;100.00
70954;BME280;58618;47.490;8.736;2022-08-19T02:46:29;96200.34;;;17.43;100.00
70954;BME280;58618;47.490;8.736;2022-08-19T02:49:18;96200.66;;;17.42;100.00
70954;BME280;58618;47.490;8.736;2022-08-19T02:52:06;96211.56;;;17.44;100.00
70954;BME280;58618;47.490;8.736;2022-08-19T02:54:53;96204.03;;;17.42;100.00
70954;BME280;58618;47.490;8.736;2022-08-19T02:57:43;96194.38;;;17.43;100.00
70954;BME280;58618;47.490;8.736;2022-08-19T03:00:30;96201.75;;;17.41;100.00
70954;BME280;58618;47.490;8.736;2022-08-19T03:03:19;96193.06;;;17.37;100.00
70954;BME280;58618;47.490;8.736;2022-08-19T03:06:10;96198.72;;;17.39;100.00
70954;BME280;58618;47.490;8.736;2022-08-19T03:08:58;96200.97;;;17.40;100.00
70954;BME280;58618;47.490;8.736;2022-08-19T03:11:46;96203.06;;;17.47;100.00
70954;BME280;58618;47.490;8.736;2022-08-19T03:14:33;96203.06;;;17.47;100.00
70954;BME280;58618;47.490;8.736;2022-08-19T03:17:21;96198.50;;;17.44;100.00
70954;BME280;58618;47.490;8.736;2022-08-19T03:20:10;96204.56;;;17.36;100.00
70954;BME280;58618;47.490;8.736;2022-08-19T03:22:58;96212.19;;;17.41;100.00
70954;BME280;58618;47.490;8.736;2022-08-19T03:25:47;96208.50;;;17.42;100.00
70954;BME280;58618;47.490;8.736;2022-08-19T03:28:35;96200.78;;;17.33;100.00
70954;BME280;58618;47.490;8.736;2022-08-19T03:31:24;96208.38;;;17.38;100.00
70954;BME280;58618;47.490;8.736;2022-08-19T03:34:13;96202.41;;;17.38;100.00
70954;BME280;58618;47.490;8.736;2022-08-19T03:37:05;96215.66;;;17.33;100.00
70954;BME280;58618;47.490;8.736;2022-08-19T03:39:54;96205.22;;;17.33;100.00
70954;BME280;58618;47.490;8.736;2022-08-19T03:42:41;96206.75;;;17.34;100.00
70954;BME280;58618;47.490;8.736;2022-08-19T03:45:28;96208.25;;;17.35;100.00
70954;BME280;58618;47.490;8.736;2022-08-19T03:48:16;96205.63;;;17.35;100.00
70954;BME280;58618;47.490;8.736;2022-08-19T03:51:04;96200.00;;;17.33;100.00
70954;BME280;58618;47.490;8.736;2022-08-19T03:53:52;96186.09;;;17.28;100.00
70954;BME280;58618;47.490;8.736;2022-08-19T03:56:43;96186.53;;;17.30;100.00
70954;BME280;58618;47.490;8.736;2022-08-19T03:59:34;96190.88;;;17.26;100.00
70954;BME280;58618;47.490;8.736;2022-08-19T04:02:21;96187.19;;;17.27;100.00
70954;BME280;58618;47.490;8.736;2022-08-19T04:05:09;96192.19;;;17.33;100.00
70954;BME280;58618;47.490;8.736;2022-08-19T04:07:56;96192.81;;;17.29;100.00
70954;BME280;58618;47.490;8.736;2022-08-19T04:10:45;96184.56;;;17.27;100.00
70954;BME280;58618;47.490;8.736;2022-08-19T04:13:34;96194.34;;;17.30;100.00
70954;BME280;58618;47.490;8.736;2022-08-19T04:16:23;96189.59;;;17.33;100.00
70954;BME280;58618;47.490;8.736;2022-08-19T04:19:11;96188.50;;;17.34;100.00
70954;BME280;58618;47.490;8.736;2022-08-19T04:21:59;96183.06;;;17.39;100.00
70954;BME280;58618;47.490;8.736;2022-08-19T04:24:46;96191.31;;;17.41;100.00
70954;BME280;58618;47.490;8.736;2022-08-19T04:27:34;96186.09;;;17.41;100.00
70954;BME280;58618;47.490;8.736;2022-08-19T04:30:22;96199.59;;;17.43;100.00
70954;BME280;58618;47.490;8.736;2022-08-19T04:33:11;96210.13;;;17.46;100.00
70954;BME280;58618;47.490;8.736;2022-08-19T04:35:59;96209.06;;;17.47;100.00
70954;BME280;58618;47.490;8.736;2022-08-19T04:38:46;96211.56;;;17.44;100.00
70954;BME280;58618;47.490;8.736;2022-08-19T04:41:37;96211.75;;;17.51;100.00
70954;BME280;58618;47.490;8.736;2022-08-19T04:44:42;96214.81;;;17.53;100.00
70954;BME280;58618;47.490;8.736;2022-08-19T04:47:31;96210.47;;;17.57;100.00
70954;BME280;58618;47.490;8.736;2022-08-19T04:50:19;96212.66;;;17.55;100.00
70954;BME280;58618;47.490;8.736;2022-08-19T04:53:06;96209.59;;;17.53;100.00
70954;BME280;58618;47.490;8.736;2022-08-19T04:55:54;96217.88;;;17.55;100.00
70954;BME280;58618;47.490;8.736;2022-08-19T04:58:43;96225.25;;;17.53;100.00
70954;BME280;58618;47.490;8.736;2022-08-19T05:01:32;96237.22;;;17.54;100.00
70954;BME280;58618;47.490;8.736;2022-08-19T05:04:23;96232.00;;;17.54;100.00
70954;BME280;58618;47.490;8.736;2022-08-19T05:07:10;96238.75;;;17.55;100.00
70954;BME280;58618;47.490;8.736;2022-08-19T05:09:57;96240.91;;;17.53;100.00
70954;BME280;58618;47.490;8.736;2022-08-19T05:12:44;96238.59;;;17.51;100.00
70954;BME280;58618;47.490;8.736;2022-08-19T05:15:32;96243.97;;;17.55;100.00
70954;BME280;58618;47.490;8.736;2022-08-19T05:18:19;96248.41;;;17.54;100.00
70954;BME280;58618;47.490;8.736;2022-08-19T05:21:26;96256.66;;;17.56;100.00
70954;BME280;58618;47.490;8.736;2022-08-19T05:24:31;96259.16;;;17.53;100.00
70954;BME280;58618;47.490;8.736;2022-08-19T05:27:20;96256.31;;;17.46;100.00
70954;BME280;58618;47.490;8.736;2022-08-19T05:30:08;96263.06;;;17.47;100.00
70954;BME280;58618;47.490;8.736;2022-08-19T05:32:56;96274.03;;;17.52;100.00
70954;BME280;58618;47.490;8.736;2022-08-19T05:35:43;96273.72;;;17.54;100.00
70954;BME280;58618;47.490;8.736;2022-08-19T05:38:33;96279.56;;;17.51;100.00
70954;BME280;58618;47.490;8.736;2022-08-19T05:41:21;96281.41;;;17.50;100.00
70954;BME280;58618;47.490;8.736;2022-08-19T05:44:17;96279.56;;;17.51;100.00
70954;BME280;58618;47.490;8.736;2022-08-19T05:47:06;96279.56;;;17.51;100.00
70954;BME280;58618;47.490;8.736;2022-08-19T05:49:55;96277.53;;;17.56;100.00
70954;BME280;58618;47.490;8.736;2022-08-19T05:52:42;96276.75;;;17.56;100.00
70954;BME280;58618;47.490;8.736;2022-08-19T05:55:31;96269.38;;;17.58;100.00
70954;BME280;58618;47.490;8.736;2022-08-19T05:58:18;96266.16;;;17.61;100.00
70954;BME280;58618;47.490;8.736;2022-08-19T06:01:10;96265.53;;;17.64;100.00
70954;BME280;58618;47.490;8.736;2022-08-19T06:03:58;96267.94;;;17.69;100.00
70954;BME280;58618;47.490;8.736;2022-08-19T06:06:46;96261.84;;;17.65;100.00
70954;BME280;58618;47.490;8.736;2022-08-19T06:09:33;96266.19;;;17.73;100.00
70954;BME280;58618;47.490;8.736;2022-08-19T06:12:22;96266.19;;;17.73;100.00
70954;BME280;58618;47.490;8.736;2022-08-19T06:15:16;96273.81;;;17.78;100.00
70954;BME280;58618;47.490;8.736;2022-08-19T06:18:03;96270.78;;;17.76;100.00
70954;BME280;58618;47.490;8.736;2022-08-19T06:20:51;96274.69;;;17.82;100.00
70954;BME280;58618;47.490;8.736;2022-08-19T06:23:38;96268.59;;;17.78;100.00
70954;BME280;58618;47.490;8.736;2022-08-19T06:26:27;96276.19;;;17.83;100.00
70954;BME280;58618;47.490;8.736;2022-08-19T06:29:16;96271.66;;;17.80;100.00
70954;BME280;58618;47.490;8.736;2022-08-19T06:32:04;96271.75;;;17.84;100.00
70954;BME280;58618;47.490;8.736;2022-08-19T06:34:52;96275.03;;;17.81;100.00
70954;BME280;58618;47.490;8.736;2022-08-19T06:37:39;96269.03;;;17.80;100.00
70954;BME280;58618;47.490;8.736;2022-08-19T06:40:27;96271.50;;;17.77;100.00
70954;BME280;58618;47.490;8.736;2022-08-19T06:43:14;96285.66;;;17.88;100.00
70954;BME280;58618;47.490;8.736;2022-08-19T06:46:03;96286.00;;;17.86;100.00
70954;BME280;58618;47.490;8.736;2022-08-19T06:48:54;96287.09;;;17.85;100.00
70954;BME280;58618;47.490;8.736;2022-08-19T06:51:43;96284.38;;;17.82;100.00
70954;BME280;58618;47.490;8.736;2022-08-19T06:54:31;96282.28;;;17.87;100.00
70954;BME280;58618;47.490;8.736;2022-08-19T06:57:19;96291.53;;;17.85;100.00
70954;BME280;58618;47.490;8.736;2022-08-19T07:00:09;96287.50;;;17.87;100.00
70954;BME280;58618;47.490;8.736;2022-08-19T07:03:00;96292.31;;;17.85;100.00
70954;BME280;58618;47.490;8.736;2022-08-19T07:05:48;96277.75;;;17.84;100.00
70954;BME280;58618;47.490;8.736;2022-08-19T07:08:37;96288.63;;;17.86;100.00
70954;BME280;58618;47.490;8.736;2022-08-19T07:11:25;96285.13;;;17.82;100.00
70954;BME280;58618;47.490;8.736;2022-08-19T07:14:13;96286.78;;;17.87;100.00
70954;BME280;58618;47.490;8.736;2022-08-19T07:17:05;96290.47;;;17.86;100.00
70954;BME280;58618;47.490;8.736;2022-08-19T07:19:55;96289.03;;;17.88;100.00
70954;BME280;58618;47.490;8.736;2022-08-19T07:22:42;96292.72;;;17.87;100.00
70954;BME280;58618;47.490;8.736;2022-08-19T07:25:31;96298.84;;;17.91;100.00
70954;BME280;58618;47.490;8.736;2022-08-19T07:28:18;96304.69;;;17.88;100.00
70954;BME280;58618;47.490;8.736;2022-08-19T07:31:14;96307.31;;;17.88;100.00
70954;BME280;58618;47.490;8.736;2022-08-19T07:34:06;96309.91;;;17.88;100.00
70954;BME280;58618;47.490;8.736;2022-08-19T07:36:57;96312.09;;;17.86;100.00
70954;BME280;58618;47.490;8.736;2022-08-19T07:39:47;96315.13;;;17.88;100.00
70954;BME280;58618;47.490;8.736;2022-08-19T07:42:35;96314.72;;;17.86;100.00
70954;BME280;58618;47.490;8.736;2022-08-19T07:45:22;96306.53;;;17.76;100.00
70954;BME280;58618;47.490;8.736;2022-08-19T07:48:10;96312.72;;;17.83;100.00
70954;BME280;58618;47.490;8.736;2022-08-19T07:51:00;96316.44;;;17.82;100.00
70954;BME280;58618;47.490;8.736;2022-08-19T07:53:50;96318.63;;;17.80;100.00
70954;BME280;58618;47.490;8.736;2022-08-19T07:56:37;96317.84;;;17.80;100.00
70954;BME280;58618;47.490;8.736;2022-08-19T07:59:25;96329.47;;;17.82;100.00
70954;BME280;58618;47.490;8.736;2022-08-19T08:02:14;96329.03;;;17.80;100.00
70954;BME280;58618;47.490;8.736;2022-08-19T08:05:02;96335.91;;;17.85;100.00
70954;BME280;58618;47.490;8.736;2022-08-19T08:08:07;96349.06;;;17.88;100.00
70954;BME280;58618;47.490;8.736;2022-08-19T08:11:24;96347.34;;;17.92;100.00
70954;BME280;58618;47.490;8.736;2022-08-19T08:14:12;96346.59;;;17.92;100.00
70954;BME280;58618;47.490;8.736;2022-08-19T08:16:59;96353.66;;;17.91;100.00
70954;BME280;58618;47.490;8.736;2022-08-19T08:19:47;96354.72;;;17.90;100.00
70954;BME280;58618;47.490;8.736;2022-08-19T08:22:36;96360.72;;;17.91;100.00
70954;BME280;58618;47.490;8.736;2022-08-19T08:25:41;96354.28;;;17.88;100.00
70954;BME280;58618;47.490;8.736;2022-08-19T08:28:30;96365.81;;;17.87;100.00
70954;BME280;58618;47.490;8.736;2022-08-19T08:31:18;96370.59;;;17.85;100.00
70954;BME280;58618;47.490;8.736;2022-08-19T08:34:06;96365.69;;;17.84;100.00
70954;BME280;58618;47.490;8.736;2022-08-19T08:36:54;96375.25;;;17.80;100.00
70954;BME280;58618;47.490;8.736;2022-08-19T08:39:42;96376.88;;;17.84;100.00
70954;BME280;58618;47.490;8.736;2022-08-19T08:42:32;96383.63;;;17.85;100.00
70954;BME280;58618;47.490;8.736;2022-08-19T08:45:23;96386.69;;;17.87;100.00
70954;BME280;58618;47.490;8.736;2022-08-19T08:48:16;96389.25;;;17.75;100.00
70954;BME280;58618;47.490;8.736;2022-08-19T08:51:09;96384.91;;;17.79;100.00
70954;BME280;58618;47.490;8.736;2022-08-19T08:53:57;96393.97;;;17.82;100.00
70954;BME280;58618;47.490;8.736;2022-08-19T08:56:46;96398.16;;;17.74;100.00
70954;BME280;58618;47.490;8.736;2022-08-19T08:59:38;96401.84;;;17.73;100.00
70954;BME280;58618;47.490;8.736;2022-08-19T09:02:28;96403.13;;;17.67;100.00
70954;BME280;58618;47.490;8.736;2022-08-19T09:05:16;96403.38;;;17.74;100.00
70954;BME280;58618;47.490;8.736;2022-08-19T09:08:08;96410.13;;;17.75;100.00
70954;BME280;58618;47.490;8.736;2022-08-19T09:10:57;96406.38;;;17.64;100.00
70954;BME280;58618;47.490;8.736;2022-08-19T09:13:50;96406.00;;;17.74;100.00
70954;BME280;58618;47.490;8.736;2022-08-19T09:16:43;96401.22;;;17.76;100.00
70954;BME280;58618;47.490;8.736;2022-08-19T09:19:32;96406.44;;;17.76;100.00
70954;BME280;58618;47.490;8.736;2022-08-19T09:22:20;96402.72;;;17.77;100.00
70954;BME280;58618;47.490;8.736;2022-08-19T09:25:10;96401.22;;;17.76;100.00
70954;BME280;58618;47.490;8.736;2022-08-19T09:27:58;96404.34;;;17.69;100.00
70954;BME280;58618;47.490;8.736;2022-08-19T09:30:48;96415.66;;;17.73;100.00
70954;BME280;58618;47.490;8.736;2022-08-19T09:33:36;96421.19;;;17.72;100.00
70954;BME280;58618;47.490;8.736;2022-08-19T09:36:26;96423.59;;;17.77;100.00
70954;BME280;58618;47.490;8.736;2022-08-19T09:39:14;96417.75;;;17.80;100.00
70954;BME280;58618;47.490;8.736;2022-08-19T09:42:02;96421.25;;;17.84;100.00
70954;BME280;58618;47.490;8.736;2022-08-19T09:44:50;96423.84;;;17.84;100.00
70954;BME280;58618;47.490;8.736;2022-08-19T09:47:38;96424.44;;;17.90;100.00
70954;BME280;58618;47.490;8.736;2022-08-19T09:50:25;96434.41;;;17.88;100.00
70954;BME280;58618;47.490;8.736;2022-08-19T09:53:14;96432.75;;;17.83;100.00
70954;BME280;58618;47.490;8.736;2022-08-19T09:56:01;96430.63;;;17.85;100.00
70954;BME280;58618;47.490;8.736;2022-08-19T09:58:49;96429.09;;;17.84;100.00
70954;BME280;58618;47.490;8.736;2022-08-19T10:01:37;96439.97;;;17.86;100.00
70954;BME280;58618;47.490;8.736;2022-08-19T10:04:24;96432.00;;;17.83;100.00
70954;BME280;58618;47.490;8.736;2022-08-19T10:07:32;96423.84;;;17.84;100.00
70954;BME280;58618;47.490;8.736;2022-08-19T10:10:21;96425.13;;;17.78;100.00
70954;BME280;58618;47.490;8.736;2022-08-19T10:13:08;96433.41;;;17.80;100.00
70954;BME280;58618;47.490;8.736;2022-08-19T10:15:57;96436.47;;;17.82;100.00
70954;BME280;58618;47.490;8.736;2022-08-19T10:18:49;96435.84;;;17.85;100.00
70954;BME280;58618;47.490;8.736;2022-08-19T10:21:36;96438.44;;;17.85;100.00
70954;BME280;58618;47.490;8.736;2022-08-19T10:24:24;96442.59;;;17.86;100.00
70954;BME280;58618;47.490;8.736;2022-08-19T10:27:14;96442.25;;;17.88;100.00
70954;BME280;58618;47.490;8.736;2022-08-19T10:30:02;96432.16;;;17.86;100.00
70954;BME280;58618;47.490;8.736;2022-08-19T10:32:50;96443.47;;;17.90;100.00
70954;BME280;58618;47.490;8.736;2022-08-19T10:35:37;96442.03;;;17.93;100.00
70954;BME280;58618;47.490;8.736;2022-08-19T10:38:25;96443.34;;;17.87;100.00
70954;BME280;58618;47.490;8.736;2022-08-19T10:41:14;96445.75;;;17.92;100.00
70954;BME280;58618;47.490;8.736;2022-08-19T10:44:05;96456.63;;;17.94;100.00
70954;BME280;58618;47.490;8.736;2022-08-19T10:46:53;96455.09;;;17.93;100.00
70954;BME280;58618;47.490;8.736;2022-08-19T10:49:40;96454.78;;;17.94;100.00
70954;BME280;58618;47.490;8.736;2022-08-19T10:52:43;96456.06;;;17.88;100.00
70954;BME280;58618;47.490;8.736;2022-08-19T10:55:31;96463.25;;;17.91;100.00
70954;BME280;58618;47.490;8.736;2022-08-19T10:58:36;96456.31;;;17.95;100.00
70954;BME280;58618;47.490;8.736;2022-08-19T11:01:25;96460.47;;;17.96;100.00
70954;BME280;58618;47.490;8.736;2022-08-19T11:04:13;96453.03;;;17.86;100.00
70954;BME280;58618;47.490;8.736;2022-08-19T11:07:04;96459.75;;;17.87;100.00
70954;BME280;58618;47.490;8.736;2022-08-19T11:09:52;96462.03;;;17.89;100.00
70954;BME280;58618;47.490;8.736;2022-08-19T11:12:40;96461.28;;;17.88;100.00
70954;BME280;58618;47.490;8.736;2022-08-19T11:15:27;96470.31;;;17.91;100.00
70954;BME280;58618;47.490;8.736;2022-08-19T11:18:16;96474.00;;;17.90;100.00
70954;BME280;58618;47.490;8.736;2022-08-19T11:21:08;96476.94;;;17.88;100.00
70954;BME280;58618;47.490;8.736;2022-08-19T11:23:58;96468.78;;;17.90;100.00
70954;BME280;58618;47.490;8.736;2022-08-19T11:26:48;96476.16;;;17.88;100.00
70954;BME280;58618;47.490;8.736;2022-08-19T11:29:37;96477.69;;;17.89;100.00
70954;BME280;58618;47.490;8.736;2022-08-19T11:32:24;96489.38;;;17.91;100.00
70954;BME280;58618;47.490;8.736;2022-08-19T11:35:13;96486.75;;;17.91;100.00
70954;BME280;58618;47.490;8.736;2022-08-19T11:38:01;96488.13;;;17.89;100.00
70954;BME280;58618;47.490;8.736;2022-08-19T11:40:55;96490.91;;;17.92;100.00
70954;BME280;58618;47.490;8.736;2022-08-19T11:43:42;96497.63;;;17.93;100.00
70954;BME280;58618;47.490;8.736;2022-08-19T11:46:30;96493.81;;;17.91;100.00
70954;BME280;58618;47.490;8.736;2022-08-19T11:49:19;96500.13;;;17.90;100.00
70954;BME280;58618;47.490;8.736;2022-08-19T11:52:08;96508.91;;;17.85;100.00
70954;BME280;58618;47.490;8.736;2022-08-19T11:56:57;96505.22;;;17.86;100.00
70954;BME280;58618;47.490;8.736;2022-08-19T11:58:42;96508.72;;;17.90;100.00
70954;BME280;58618;47.490;8.736;2022-08-19T12:01:30;96507.63;;;17.91;100.00
70954;BME280;58618;47.490;8.736;2022-08-19T12:04:17;96512.19;;;17.94;100.00
70954;BME280;58618;47.490;8.736;2022-08-19T12:07:04;96506.47;;;18.01;100.00
70954;BME280;58618;47.490;8.736;2022-08-19T12:09:53;96510.44;;;18.07;100.00
70954;BME280;58618;47.490;8.736;2022-08-19T12:12:41;96500.50;;;18.00;100.00
70954;BME280;58618;47.490;8.736;2022-08-19T12:15:28;96499.66;;;18.08;100.00
70954;BME280;58618;47.490;8.736;2022-08-19T12:18:16;96508.38;;;18.12;100.00
70954;BME280;58618;47.490;8.736;2022-08-19T12:21:03;96501.13;;;18.18;100.00
70954;BME280;58618;47.490;8.736;2022-08-19T12:23:51;96501.22;;;18.22;100.00
70954;BME280;58618;47.490;8.736;2022-08-19T12:26:40;96503.00;;;18.30;100.00
70954;BME280;58618;47.490;8.736;2022-08-19T12:29:29;96496.25;;;18.29;100.00
70954;BME280;58618;47.490;8.736;2022-08-19T12:32:16;96500.94;;;18.35;100.00
70954;BME280;58618;47.490;8.736;2022-08-19T12:35:05;96500.44;;;18.42;100.00
70954;BME280;58618;47.490;8.736;2022-08-19T12:37:53;96495.66;;;18.44;100.00
70954;BME280;58618;47.490;8.736;2022-08-19T12:40:40;96501.50;;;18.41;100.00
70954;BME280;58618;47.490;8.736;2022-08-19T12:43:28;96500.44;;;18.42;100.00
70954;BME280;58618;47.490;8.736;2022-08-19T12:46:17;96503.28;;;18.49;100.00
70954;BME280;58618;47.490;8.736;2022-08-19T12:49:04;96498.16;;;18.52;100.00
70954;BME280;58618;47.490;8.736;2022-08-19T12:51:52;96496.97;;;18.50;100.00
70954;BME280;58618;47.490;8.736;2022-08-19T12:54:39;96500.19;;;18.55;100.00
70954;BME280;58618;47.490;8.736;2022-08-19T12:57:27;96504.44;;;18.60;100.00
70954;BME280;58618;47.490;8.736;2022-08-19T13:00:20;96496.59;;;18.60;100.00
70954;BME280;58618;47.490;8.736;2022-08-19T13:03:08;96499.22;;;18.60;100.00
70954;BME280;58618;47.490;8.736;2022-08-19T13:05:55;96500.75;;;18.61;100.00
70954;BME280;58618;47.490;8.736;2022-08-19T13:08:42;96498.25;;;18.65;100.00
70954;BME280;58618;47.490;8.736;2022-08-19T13:11:30;96499.63;;;18.62;100.00
70954;BME280;58618;47.490;8.736;2022-08-19T13:14:18;96495.06;;;18.59;100.00
70954;BME280;58618;47.490;8.736;2022-08-19T13:17:07;96495.94;;;18.63;100.00
70954;BME280;58618;47.490;8.736;2022-08-19T13:19:54;96499.44;;;18.67;100.00
70954;BME280;58618;47.490;8.736;2022-08-19T13:22:42;96509.31;;;18.62;100.00
70954;BME280;58618;47.490;8.736;2022-08-19T13:25:30;96497.47;;;18.64;100.00
70954;BME280;58618;47.490;8.736;2022-08-19T13:28:18;96502.72;;;18.76;100.00
70954;BME280;58618;47.490;8.736;2022-08-19T13:31:05;96510.00;;;18.83;100.00
70954;BME280;58618;47.490;8.736;2022-08-19T13:34:12;96495.41;;;18.70;100.00
70954;BME280;58618;47.490;8.736;2022-08-19T13:37:01;96512.63;;;18.71;100.00
70954;BME280;58618;47.490;8.736;2022-08-19T13:39:49;96512.22;;;18.81;100.00
70954;BME280;58618;47.490;8.736;2022-08-19T13:42:40;96521.78;;;18.89;100.00
70954;BME280;58618;47.490;8.736;2022-08-19T13:45:30;96512.75;;;18.86;100.00
70954;BME280;58618;47.490;8.736;2022-08-19T13:48:18;96523.00;;;18.91;100.00
70954;BME280;58618;47.490;8.736;2022-08-19T13:51:08;96528.03;;;18.96;100.00
70954;BME280;58618;47.490;8.736;2022-08-19T13:53:56;96523.88;;;18.95;100.00
70954;BME280;58618;47.490;8.736;2022-08-19T13:56:45;96522.34;;;18.94;100.00
70954;BME280;58618;47.490;8.736;2022-08-19T13:59:32;96523.22;;;18.98;100.00
70954;BME280;58618;47.490;8.736;2022-08-19T14:02:20;96527.81;;;19.02;100.00
70954;BME280;58618;47.490;8.736;2022-08-19T14:05:10;96533.47;;;18.91;100.00
70954;BME280;58618;47.490;8.736;2022-08-19T14:07:59;96531.19;;;19.02;100.00
70954;BME280;58618;47.490;8.736;2022-08-19T14:10:46;96532.16;;;18.97;100.00
70954;BME280;58618;47.490;8.736;2022-08-19T14:13:34;96530.50;;;18.93;100.00
70954;BME280;58618;47.490;8.736;2022-08-19T14:16:21;96530.19;;;18.94;100.00
70954;BME280;58618;47.490;8.736;2022-08-19T14:19:09;96533.03;;;19.02;100.00
70954;BME280;58618;47.490;8.736;2022-08-19T14:21:56;96529.00;;;18.92;100.00
70954;BME280;58618;47.490;8.736;2022-08-19T14:24:45;96535.19;;;18.99;100.00
70954;BME280;58618;47.490;8.736;2022-08-19T14:27:34;96528.75;;;18.85;100.00
70954;BME280;58618;47.490;8.736;2022-08-19T14:30:25;96535.53;;;18.86;100.00
70954;BME280;58618;47.490;8.736;2022-08-19T14:33:14;96540.84;;;18.89;100.00
70954;BME280;58618;47.490;8.736;2022-08-19T14:36:01;96544.03;;;18.95;100.00
70954;BME280;58618;47.490;8.736;2022-08-19T14:38:48;96537.41;;;18.97;100.00
70954;BME280;58618;47.490;8.736;2022-08-19T14:41:39;96549.16;;;19.04;100.00
70954;BME280;58618;47.490;8.736;2022-08-19T14:44:27;96543.50;;;19.02;100.00